Time;durP1;ratioP1;P1;durP2;ratioP2;P2;SDS_P1;SDS_P2;PMS_P1;PMS_P2;Temp;Humidity;BMP_temperature;BMP_pressure;BME280_temperature;BME280_humidity;BME280_pressure;Samples;Min_cycle;Max_cycle;Signal;HPM_P1;HPM_P2
2021/05/06 00:33:51;;;;;;;6.57;2.97;;;10.20;93.10;;;;;;5039200;28;20481;-71
2021/05/06 00:36:16;;;;;;;3.42;2.38;;;10.20;92.90;;;;;;5038838;28;20082;-71
2021/05/06 00:38:52;;;;;;;3.60;2.67;;;10.20;92.70;;;;;;5039112;28;20034;-71
2021/05/06 01:03:06;;;;;;;5.47;2.55;;;9.80;94.20;;;;;;5039212;28;20148;-71
2021/05/06 01:12:47;;;;;;;3.42;2.20;;;9.70;95.40;;;;;;5038653;28;20029;-71
2021/05/06 01:15:14;;;;;;;6.72;2.10;;;9.70;94.40;;;;;;5038032;28;20025;-71
2021/05/06 01:17:40;;;;;;;4.35;2.80;;;9.70;94.30;;;;;;5038047;28;20072;-71
2021/05/06 01:20:07;;;;;;;5.85;4.53;;;9.70;93.80;;;;;;5038348;28;20457;-71
2021/05/06 01:22:34;;;;;;;5.38;4.30;;;9.70;95.30;;;;;;5037899;28;20032;-71
2021/05/06 01:25:00;;;;;;;5.43;4.90;;;9.60;96.20;;;;;;5037872;28;20082;-71
2021/05/06 01:28:15;;;;;;;6.97;4.97;;;9.70;96.40;;;;;;5038100;28;20025;-71
2021/05/06 01:33:10;;;;;;;4.57;2.97;;;9.60;95.50;;;;;;5038127;28;20036;-71
2021/05/06 01:58:55;;;;;;;2.72;0.63;;;9.20;83.80;;;;;;5055483;28;20131;-71
2021/05/06 02:01:21;;;;;;;2.78;1.15;;;9.20;84.10;;;;;;5046471;28;20052;-71
2021/05/06 02:03:47;;;;;;;3.05;0.80;;;9.20;86.30;;;;;;5037490;28;20025;-71
2021/05/06 02:06:12;;;;;;;2.67;1.10;;;9.40;86.10;;;;;;5037391;28;20322;-71
2021/05/06 02:08:38;;;;;;;4.45;1.08;;;9.40;85.70;;;;;;5036284;28;20075;-71
2021/05/06 02:11:04;;;;;;;2.85;1.15;;;9.30;86.20;;;;;;5037384;28;20029;-71
2021/05/06 02:13:30;;;;;;;1.90;1.05;;;9.30;86.30;;;;;;5037331;28;20018;-71
2021/05/06 02:16:05;;;;;;;2.90;1.00;;;9.30;86.60;;;;;;5037333;28;20319;-71
2021/05/06 02:18:34;;;;;;;1.30;1.00;;;9.20;87.40;;;;;;5036893;28;20049;-71
2021/05/06 02:21:00;;;;;;;1.60;1.02;;;9.10;88.10;;;;;;5037216;28;20382;-71
2021/05/06 02:23:26;;;;;;;1.48;1.23;;;9.10;89.00;;;;;;5037232;28;20049;-71
2021/05/06 02:25:52;;;;;;;2.72;1.00;;;9.10;88.90;;;;;;5037093;28;20475;-71
2021/05/06 02:28:17;;;;;;;3.42;1.30;;;9.00;89.30;;;;;;5037167;28;20313;-71
2021/05/06 02:30:44;;;;;;;2.03;1.15;;;8.90;89.00;;;;;;5036793;28;20040;-71
2021/05/06 02:33:09;;;;;;;3.28;1.30;;;8.90;90.30;;;;;;5037103;28;20022;-71
2021/05/06 02:35:38;;;;;;;2.40;1.15;;;8.90;90.40;;;;;;5036678;28;20471;-71
2021/05/06 02:38:07;;;;;;;2.15;1.20;;;8.90;90.50;;;;;;5037055;28;20368;-71
2021/05/06 02:40:34;;;;;;;2.13;1.20;;;8.90;89.60;;;;;;5037027;28;20056;-71
2021/05/06 02:43:00;;;;;;;3.10;1.38;;;8.90;87.60;;;;;;5036723;28;20152;-71
2021/05/06 02:45:26;;;;;;;4.43;1.65;;;9.20;86.00;;;;;;5036917;28;20045;-71
2021/05/06 02:47:52;;;;;;;1.58;0.82;;;9.50;84.30;;;;;;5036855;28;20116;-71
2021/05/06 02:50:21;;;;;;;1.85;0.95;;;9.70;83.10;;;;;;5036933;28;20135;-71
2021/05/06 02:58:02;;;;;;;1.35;0.70;;;10.10;79.80;;;;;;5036592;28;20032;-71
2021/05/06 03:03:12;;;;;;;3.65;0.77;;;10.20;79.30;;;;;;5036744;28;20067;-71
2021/05/06 03:05:39;;;;;;;1.05;0.90;;;10.20;80.50;;;;;;5036275;28;20057;-71
2021/05/06 03:08:29;;;;;;;1.73;0.50;;;10.10;80.10;;;;;;5036436;28;20029;-71
2021/05/06 03:24:24;;;;;;;2.45;0.50;;;9.50;84.00;;;;;;5040801;28;20040;-71
2021/05/06 03:26:49;;;;;;;2.75;0.73;;;9.40;84.50;;;;;;5039050;28;20088;-71
2021/05/06 03:29:30;;;;;;;0.73;0.40;;;9.40;85.30;;;;;;5040158;28;20026;-71
2021/05/06 03:32:10;;;;;;;4.07;0.52;;;9.30;85.90;;;;;;5040443;28;20032;-71
2021/05/06 03:42:37;;;;;;;4.22;0.55;;;8.90;85.70;;;;;;5040499;28;20556;-71
2021/05/06 03:47:55;;;;;;;4.25;0.47;;;8.80;87.80;;;;;;5039755;28;20326;-71
2021/05/06 04:36:25;;;;;;;1.73;0.40;;;10.20;82.60;;;;;;5039006;28;20060;-71
2021/05/06 04:38:51;;;;;;;0.55;0.40;;;10.10;83.50;;;;;;5039204;28;20030;-71
2021/05/06 04:41:46;;;;;;;3.00;0.60;;;10.10;82.80;;;;;;5038859;28;20087;-71
2021/05/06 04:55:23;;;;;;;2.05;0.70;;;10.20;83.70;;;;;;5038560;28;20091;-71
2021/05/06 05:03:33;;;;;;;1.38;0.63;;;10.50;85.20;;;;;;5038702;28;20430;-71
2021/05/06 05:06:00;;;;;;;1.08;0.40;;;10.70;85.70;;;;;;5038623;28;20029;-71
2021/05/06 05:08:28;;;;;;;1.88;0.70;;;10.80;82.30;;;;;;5038650;28;20414;-71
2021/05/06 05:24:19;;;;;;;2.40;0.82;;;11.20;82.20;;;;;;5036826;28;20044;-71
2021/05/06 05:26:45;;;;;;;0.90;0.45;;;11.10;81.80;;;;;;5037876;28;20025;-71
2021/05/06 05:29:10;;;;;;;1.40;0.60;;;11.00;82.20;;;;;;5038249;28;20018;-71
2021/05/06 05:31:36;;;;;;;1.27;0.50;;;11.10;83.00;;;;;;5037869;28;20461;-71
2021/05/06 05:34:21;;;;;;;1.48;0.65;;;11.30;82.20;;;;;;5038057;28;20048;-71
2021/05/06 05:36:50;;;;;;;3.15;0.70;;;11.40;79.30;;;;;;5037759;28;20091;-71
2021/05/06 05:42:33;;;;;;;1.15;0.57;;;11.70;77.70;;;;;;5038035;28;20426;-71
2021/05/06 05:55:14;;;;;;;1.48;0.60;;;12.00;82.10;;;;;;5037509;28;20044;-71
2021/05/06 05:57:40;;;;;;;4.32;0.65;;;12.10;83.30;;;;;;5037669;28;20344;-72
2021/05/06 06:00:06;;;;;;;1.33;0.73;;;12.10;80.70;;;;;;5037303;28;20437;-72
2021/05/06 06:02:35;;;;;;;2.40;0.82;;;12.10;80.60;;;;;;5037683;28;20417;-71
2021/05/06 06:05:00;;;;;;;1.42;0.50;;;12.10;81.20;;;;;;5037187;28;20052;-71
2021/05/06 06:07:26;;;;;;;2.38;0.50;;;12.00;82.20;;;;;;5037167;28;20045;-71
2021/05/06 06:09:52;;;;;;;2.78;0.60;;;12.00;81.10;;;;;;5037133;28;20025;-72
2021/05/06 06:12:18;;;;;;;2.35;0.88;;;12.10;80.60;;;;;;5037155;28;20029;-71
2021/05/06 06:17:10;;;;;;;1.67;0.70;;;12.10;78.90;;;;;;5036946;28;20352;-71
2021/05/06 06:19:37;;;;;;;1.95;0.95;;;12.20;81.70;;;;;;5037040;28;20109;-71
2021/05/06 06:22:13;;;;;;;1.38;0.70;;;12.30;81.00;;;;;;5037316;28;20030;-72
2021/05/06 06:24:39;;;;;;;3.45;0.55;;;12.40;76.50;;;;;;5037401;28;20034;-72
2021/05/06 06:27:05;;;;;;;0.73;0.50;;;12.50;77.50;;;;;;5037144;28;20333;-72
2021/05/06 06:29:33;;;;;;;1.50;0.50;;;12.70;73.40;;;;;;5037181;28;20470;-72
2021/05/06 06:32:01;;;;;;;2.63;0.40;;;12.80;74.00;;;;;;5036881;28;20091;-71
2021/05/06 06:34:26;;;;;;;5.68;0.60;;;12.80;73.70;;;;;;5036763;28;20033;-72
2021/05/06 06:36:52;;;;;;;2.97;0.50;;;12.70;73.40;;;;;;5037089;28;20026;-72
2021/05/06 06:39:18;;;;;;;1.65;0.50;;;12.60;73.60;;;;;;5037058;28;20027;-72
2021/05/06 06:41:44;;;;;;;1.38;0.45;;;12.50;74.70;;;;;;5037060;28;20025;-72
2021/05/06 06:44:12;;;;;;;0.82;0.55;;;12.50;72.30;;;;;;5036943;28;20026;-71
2021/05/06 06:46:38;;;;;;;0.90;0.55;;;12.50;75.20;;;;;;5036548;28;20418;-72
2021/05/06 06:49:04;;;;;;;2.28;0.43;;;12.50;73.70;;;;;;5036949;28;20029;-72
2021/05/06 06:51:30;;;;;;;0.90;0.40;;;12.50;72.80;;;;;;5036926;28;20025;-71
2021/05/06 06:53:56;;;;;;;0.73;0.30;;;12.40;74.20;;;;;;5036764;28;20334;-71
2021/05/06 06:56:22;;;;;;;0.40;0.30;;;12.40;75.50;;;;;;5043015;28;20029;-72
2021/05/06 06:58:52;;;;;;;0.77;0.43;;;12.50;72.50;;;;;;5043185;28;20033;-72
2021/05/06 07:01:18;;;;;;;1.08;0.50;;;12.50;72.40;;;;;;5043140;28;20104;-72
2021/05/06 07:03:44;;;;;;;3.60;0.43;;;12.60;73.00;;;;;;5043050;28;20090;-72
2021/05/06 07:06:11;;;;;;;1.30;0.38;;;12.90;71.20;;;;;;5043328;28;20025;-72
2021/05/06 07:08:42;;;;;;;0.75;0.45;;;13.20;71.60;;;;;;5043342;28;20025;-72
2021/05/06 07:11:08;;;;;;;0.88;0.38;;;13.50;72.50;;;;;;5043375;28;20092;-72
2021/05/06 07:13:34;;;;;;;0.70;0.50;;;13.70;69.30;;;;;;5043247;28;20087;-72
2021/05/06 07:16:02;;;;;;;0.45;0.32;;;13.70;71.30;;;;;;5043027;28;20056;-72
2021/05/06 07:18:30;;;;;;;2.58;0.40;;;13.90;69.80;;;;;;5042785;28;20442;-72
2021/05/06 07:20:56;;;;;;;1.58;0.40;;;13.70;68.90;;;;;;5043240;28;20029;-72
2021/05/06 07:23:23;;;;;;;2.97;0.60;;;13.90;69.70;;;;;;5043127;28;20064;-72
2021/05/06 07:25:52;;;;;;;1.35;0.55;;;13.90;67.80;;;;;;5042731;28;20071;-72
2021/05/06 07:28:23;;;;;;;2.42;0.47;;;13.80;69.70;;;;;;5043183;28;20022;-72
2021/05/06 07:30:50;;;;;;;3.25;0.50;;;13.60;70.60;;;;;;5042815;28;20101;-72
2021/05/06 07:33:17;;;;;;;2.38;0.45;;;13.50;71.40;;;;;;5043154;28;20036;-72
2021/05/06 07:35:43;;;;;;;1.65;0.50;;;13.30;68.90;;;;;;5043052;28;20025;-72
2021/05/06 07:38:10;;;;;;;1.17;0.52;;;13.10;70.40;;;;;;5042820;28;20040;-72
2021/05/06 07:40:37;;;;;;;1.25;0.43;;;13.20;72.50;;;;;;5043017;28;20037;-72
2021/05/06 07:43:03;;;;;;;1.17;0.40;;;13.30;70.00;;;;;;5043077;28;20101;-72
2021/05/06 07:45:32;;;;;;;0.82;0.40;;;13.50;71.10;;;;;;5042970;28;20104;-72
2021/05/06 07:47:59;;;;;;;1.25;0.30;;;13.70;69.70;;;;;;5042939;28;20033;-72
2021/05/06 07:50:26;;;;;;;0.65;0.30;;;13.70;71.70;;;;;;5042662;28;20032;-72
2021/05/06 07:52:54;;;;;;;1.40;0.50;;;13.80;70.80;;;;;;5041650;28;20365;-72
2021/05/06 07:55:21;;;;;;;1.58;0.40;;;13.70;71.10;;;;;;5042924;28;20099;-72
2021/05/06 07:57:47;;;;;;;2.45;0.65;;;13.50;71.20;;;;;;5042659;28;20041;-72
2021/05/06 08:00:18;;;;;;;0.95;0.47;;;13.30;73.70;;;;;;5042915;28;20056;-72
2021/05/06 08:02:46;;;;;;;1.73;0.60;;;13.00;73.10;;;;;;5042922;28;20026;-72
2021/05/06 08:05:13;;;;;;;3.13;0.70;;;12.70;73.40;;;;;;5042496;28;20108;-72
2021/05/06 08:07:39;;;;;;;2.53;0.68;;;12.60;75.70;;;;;;5039933;28;20057;-72
2021/05/06 08:10:06;;;;;;;1.73;0.80;;;12.50;75.20;;;;;;5039431;28;20056;-72
2021/05/06 08:12:31;;;;;;;1.95;0.73;;;12.40;76.10;;;;;;5039408;28;20060;-72
2021/05/06 08:14:57;;;;;;;3.35;0.70;;;12.40;78.00;;;;;;5039241;28;20053;-72
2021/05/06 08:17:24;;;;;;;1.95;0.65;;;12.40;77.40;;;;;;5039367;28;20061;-72
2021/05/06 08:19:50;;;;;;;2.53;0.73;;;12.40;76.70;;;;;;5039559;28;20322;-72
2021/05/06 08:22:16;;;;;;;2.05;0.50;;;12.40;77.60;;;;;;5039538;28;20113;-72
2021/05/06 08:24:42;;;;;;;1.65;0.70;;;12.50;76.60;;;;;;5039006;28;20079;-72
2021/05/06 08:27:08;;;;;;;4.80;0.73;;;12.60;76.10;;;;;;5039029;28;20033;-72
2021/05/06 08:29:34;;;;;;;1.58;0.65;;;12.70;77.40;;;;;;5039417;28;20083;-72
2021/05/06 08:31:59;;;;;;;3.40;0.88;;;12.70;77.60;;;;;;5039329;28;20356;-72
2021/05/06 08:34:25;;;;;;;3.92;1.35;;;12.90;77.50;;;;;;5039247;28;20346;-72
2021/05/06 08:36:51;;;;;;;2.40;0.82;;;12.90;76.00;;;;;;5039203;28;20025;-72
2021/05/06 08:39:17;;;;;;;2.88;0.60;;;12.90;74.60;;;;;;5038897;28;20445;-72
2021/05/06 08:41:43;;;;;;;2.40;0.70;;;12.80;76.30;;;;;;5039130;28;20108;-72
2021/05/06 08:44:12;;;;;;;4.15;1.00;;;12.90;76.10;;;;;;5039052;28;20040;-72
2021/05/06 08:46:50;;;;;;;1.45;0.80;;;13.10;74.30;;;;;;5038933;28;20030;-72
2021/05/06 08:49:16;;;;;;;3.60;1.20;;;13.60;73.60;;;;;;5038735;28;20070;-72
2021/05/06 08:51:43;;;;;;;3.15;0.90;;;13.80;74.70;;;;;;5038668;28;20427;-72
2021/05/06 08:54:09;;;;;;;3.90;0.77;;;14.10;74.00;;;;;;5038940;28;20029;-72
2021/05/06 08:56:34;;;;;;;2.13;0.88;;;14.90;72.90;;;;;;5038581;28;20033;-72
2021/05/06 08:59:00;;;;;;;1.40;0.70;;;15.70;69.70;;;;;;5038493;28;20053;-72
2021/05/06 09:01:26;;;;;;;2.92;0.73;;;16.30;66.90;;;;;;5038489;28;20025;-71
2021/05/06 09:03:52;;;;;;;3.13;0.65;;;17.00;68.90;;;;;;5038397;28;20021;-72
2021/05/06 09:06:19;;;;;;;3.80;0.80;;;17.00;65.60;;;;;;5038298;28;20497;-72
2021/05/06 09:08:44;;;;;;;3.28;1.05;;;16.60;64.70;;;;;;5038300;28;20415;-72
2021/05/06 09:11:11;;;;;;;2.28;1.30;;;16.10;66.80;;;;;;5038266;28;20025;-72
2021/05/06 09:13:37;;;;;;;2.78;0.65;;;16.40;64.50;;;;;;5038474;28;20319;-72
2021/05/06 09:16:04;;;;;;;3.30;1.00;;;17.10;64.60;;;;;;5038455;28;20064;-72
2021/05/06 09:18:46;;;;;;;5.43;1.38;;;16.90;63.00;;;;;;5037488;28;20037;-72
2021/05/06 09:21:31;;;;;;;5.55;0.75;;;17.00;64.20;;;;;;5038404;28;20071;-71
2021/05/06 09:24:24;;;;;;;7.07;2.93;;;17.40;64.10;;;;;;5038226;28;20055;-72
2021/05/06 09:26:55;;;;;;;4.55;0.80;;;17.20;63.80;;;;;;5037915;28;20030;-72
2021/05/06 09:29:34;;;;;;;2.58;0.65;;;16.60;63.50;;;;;;5037951;28;20029;-71
2021/05/06 09:32:11;;;;;;;3.97;0.93;;;16.10;66.00;;;;;;5037865;28;20053;-72
2021/05/06 09:34:38;;;;;;;1.42;0.70;;;15.40;65.80;;;;;;5037725;28;20064;-71
2021/05/06 09:37:07;;;;;;;3.47;0.70;;;14.80;67.20;;;;;;5038057;28;20029;-72
2021/05/06 09:39:37;;;;;;;2.65;0.80;;;14.50;69.50;;;;;;5038026;28;20029;-72
2021/05/06 09:42:10;;;;;;;2.42;0.80;;;14.30;68.70;;;;;;5038011;28;20037;-72
2021/05/06 09:44:53;;;;;;;2.13;0.90;;;14.20;68.40;;;;;;5037882;28;20033;-72
2021/05/06 09:47:19;;;;;;;2.20;0.70;;;14.10;69.60;;;;;;5037547;28;20064;-72
2021/05/06 09:49:46;;;;;;;2.83;0.60;;;13.90;70.30;;;;;;5037828;28;20329;-72
2021/05/06 09:52:12;;;;;;;1.50;0.68;;;13.80;69.80;;;;;;5037582;28;20017;-72
2021/05/06 09:54:51;;;;;;;1.40;0.68;;;13.80;69.80;;;;;;5037816;28;20410;-72
2021/05/06 09:57:29;;;;;;;2.63;0.68;;;13.70;70.40;;;;;;5037431;28;20033;-72
2021/05/06 10:00:13;;;;;;;1.65;0.63;;;13.80;69.70;;;;;;5037694;28;20325;-72
2021/05/06 10:02:39;;;;;;;0.80;0.40;;;13.80;69.70;;;;;;5037680;28;20056;-71
2021/05/06 10:05:09;;;;;;;2.25;0.85;;;13.70;68.70;;;;;;5037544;28;20410;-72
2021/05/06 10:07:36;;;;;;;1.70;0.60;;;13.60;69.00;;;;;;5037481;28;20105;-72
2021/05/06 10:10:06;;;;;;;1.98;0.50;;;13.50;69.20;;;;;;5037463;28;20036;-72
2021/05/06 10:12:38;;;;;;;3.17;0.50;;;13.40;70.90;;;;;;5037220;28;20021;-72
2021/05/06 10:15:07;;;;;;;1.88;0.63;;;13.30;69.40;;;;;;5038305;28;20025;-72
2021/05/06 10:17:33;;;;;;;3.03;0.60;;;13.20;70.30;;;;;;5046304;28;20052;-72
2021/05/06 10:19:59;;;;;;;1.05;0.50;;;13.10;70.80;;;;;;5057246;28;20112;-72
2021/05/06 10:22:27;;;;;;;1.10;0.47;;;13.10;71.20;;;;;;5057281;28;20044;-71
2021/05/06 10:24:53;;;;;;;3.35;0.70;;;13.20;70.20;;;;;;5056770;28;20102;-72
2021/05/06 10:27:21;;;;;;;2.00;0.65;;;13.50;69.80;;;;;;5057079;28;20021;-72
2021/05/06 10:29:51;;;;;;;2.72;0.70;;;13.60;69.60;;;;;;5055951;28;20025;-71
2021/05/06 10:32:18;;;;;;;2.55;0.80;;;13.70;70.40;;;;;;5057088;28;20036;-71
2021/05/06 10:34:47;;;;;;;2.20;0.70;;;13.60;71.30;;;;;;5056650;28;20036;-72
2021/05/06 10:37:13;;;;;;;3.08;0.75;;;13.70;72.30;;;;;;5056708;28;20029;-72
2021/05/06 10:39:44;;;;;;;1.38;0.70;;;13.60;70.80;;;;;;5056996;28;20364;-72
2021/05/06 10:42:28;;;;;;;3.20;0.88;;;13.50;70.60;;;;;;5056934;28;20028;-71
2021/05/06 10:45:13;;;;;;;4.55;0.70;;;13.50;70.70;;;;;;5056833;28;20043;-72
2021/05/06 10:47:39;;;;;;;4.55;0.65;;;13.30;70.30;;;;;;5056536;28;20039;-72
2021/05/06 10:50:32;;;;;;;1.65;0.55;;;13.00;71.30;;;;;;5056801;28;20104;-72
2021/05/06 10:52:57;;;;;;;1.25;0.70;;;12.80;72.60;;;;;;5056369;28;20033;-72
2021/05/06 10:55:39;;;;;;;1.33;0.60;;;12.60;72.80;;;;;;5056732;28;20031;-72
2021/05/06 10:58:26;;;;;;;1.13;0.73;;;12.40;74.70;;;;;;5056483;28;20025;-72
2021/05/06 11:01:12;;;;;;;3.67;0.85;;;12.30;75.00;;;;;;5056744;28;20041;-72
2021/05/06 11:03:38;;;;;;;;;;;12.20;76.10;;;;;;5057118;28;20032;-72
2021/05/06 11:06:04;;;;;;;6.07;0.93;;;12.00;75.60;;;;;;5056408;28;20205;-72
2021/05/06 11:08:35;;;;;;;3.42;0.98;;;11.90;76.30;;;;;;5056663;28;20256;-72
2021/05/06 11:11:01;;;;;;;1.60;0.80;;;11.70;76.10;;;;;;5056410;28;20100;-72
2021/05/06 11:13:29;;;;;;;2.60;0.93;;;11.50;77.80;;;;;;5056585;28;20052;-72
2021/05/06 11:16:21;;;;;;;5.88;1.00;;;11.30;78.10;;;;;;5056329;28;20063;-72
2021/05/06 11:18:52;;;;;;;2.72;1.15;;;11.30;78.60;;;;;;5051732;28;20345;-72
2021/05/06 11:21:29;;;;;;;2.22;1.02;;;11.30;78.90;;;;;;5056251;28;20036;-72
2021/05/06 11:24:40;;;;;;;1.50;0.90;;;11.30;79.90;;;;;;5056446;28;20017;-72
2021/05/06 11:27:10;;;;;;;3.97;0.95;;;11.40;78.00;;;;;;5055811;28;20079;-72
2021/05/06 11:29:38;;;;;;;2.55;1.13;;;11.40;78.40;;;;;;5056545;28;20369;-72
2021/05/06 11:32:06;;;;;;;2.67;0.70;;;11.40;80.30;;;;;;5056532;28;20325;-72
2021/05/06 11:34:33;;;;;;;3.88;0.82;;;11.50;78.90;;;;;;5056383;28;20025;-72
2021/05/06 11:37:19;;;;;;;1.55;0.75;;;11.80;77.80;;;;;;5056409;28;20041;-72
2021/05/06 11:39:52;;;;;;;3.90;1.15;;;12.00;77.40;;;;;;5056178;28;20051;-72
2021/05/06 11:42:19;;;;;;;2.63;0.80;;;12.30;76.90;;;;;;5059360;28;20032;-72
2021/05/06 11:45:14;;;;;;;1.55;0.82;;;12.40;75.60;;;;;;5059855;28;20040;-72
2021/05/06 11:47:41;;;;;;;5.32;0.80;;;12.50;76.00;;;;;;5059792;28;20029;-71
2021/05/06 11:50:35;;;;;;;1.55;0.85;;;12.80;74.10;;;;;;5059756;28;20443;-72
2021/05/06 11:53:01;;;;;;;1.52;0.80;;;12.80;74.60;;;;;;5059492;28;20364;-72
2021/05/06 11:55:37;;;;;;;2.42;0.70;;;12.80;74.50;;;;;;5059593;28;20028;-71
2021/05/06 11:58:03;;;;;;;2.35;1.00;;;12.80;74.50;;;;;;5059903;28;20352;-72
2021/05/06 12:00:31;;;;;;;3.03;0.85;;;12.80;75.60;;;;;;5059538;28;20078;-72
2021/05/06 12:03:01;;;;;;;1.67;0.70;;;12.80;74.70;;;;;;5059578;28;20033;-72
2021/05/06 12:05:56;;;;;;;1.17;0.70;;;12.80;74.70;;;;;;5059392;28;20025;-71
2021/05/06 12:08:25;;;;;;;2.85;0.95;;;12.90;74.40;;;;;;5059800;28;20029;-72
2021/05/06 12:10:53;;;;;;;2.17;0.80;;;13.00;75.30;;;;;;5059395;28;20037;-72
2021/05/06 12:13:27;;;;;;;5.88;0.80;;;12.80;75.70;;;;;;5059680;28;20036;-72
2021/05/06 12:15:52;;;;;;;2.05;0.85;;;12.60;77.40;;;;;;5059243;28;20029;-72
2021/05/06 12:18:22;;;;;;;4.13;1.00;;;12.40;76.50;;;;;;5059028;28;20060;-72
2021/05/06 12:20:48;;;;;;;3.05;0.80;;;12.20;77.80;;;;;;5059475;28;20025;-72
2021/05/06 12:23:14;;;;;;;4.32;0.82;;;12.00;77.50;;;;;;5059296;28;20307;-72
2021/05/06 12:25:40;;;;;;;3.83;1.15;;;11.90;77.50;;;;;;5059044;28;20039;-71
2021/05/06 12:28:05;;;;;;;4.60;1.77;;;11.80;77.50;;;;;;5059304;28;20025;-72
2021/05/06 12:30:31;;;;;;;1.38;0.70;;;11.70;78.90;;;;;;5058983;28;20029;-72
2021/05/06 12:32:57;;;;;;;1.52;0.93;;;11.60;80.30;;;;;;5059275;28;20052;-72
2021/05/06 12:35:22;;;;;;;2.85;1.00;;;11.60;80.60;;;;;;5058866;28;20021;-71
2021/05/06 12:37:53;;;;;;;1.92;0.80;;;11.50;79.40;;;;;;5058869;28;20025;-72
2021/05/06 12:40:19;;;;;;;2.13;1.13;;;11.50;80.80;;;;;;5058818;28;20413;-72
2021/05/06 12:42:45;;;;;;;1.42;1.00;;;11.50;82.10;;;;;;5058835;28;20025;-72
2021/05/06 12:45:13;;;;;;;3.08;1.10;;;11.70;81.60;;;;;;5058634;28;20036;-72
2021/05/06 12:47:44;;;;;;;5.18;1.10;;;11.90;80.50;;;;;;5058618;28;20082;-72
2021/05/06 12:50:12;;;;;;;2.22;1.20;;;12.00;80.30;;;;;;5058558;28;20036;-72
2021/05/06 12:52:39;;;;;;;2.38;1.17;;;12.10;79.00;;;;;;5057958;28;20021;-72
2021/05/06 12:55:24;;;;;;;6.13;1.13;;;12.10;80.20;;;;;;5058476;28;20528;-72
2021/05/06 12:58:17;;;;;;;2.83;1.20;;;12.10;78.40;;;;;;5058714;28;20028;-72
2021/05/06 13:00:57;;;;;;;3.58;1.20;;;12.20;79.00;;;;;;5058434;28;20052;-72
2021/05/06 13:03:41;;;;;;;1.55;1.00;;;12.30;77.60;;;;;;5058747;28;20110;-72
2021/05/06 13:06:18;;;;;;;5.53;1.30;;;12.30;77.30;;;;;;5058544;28;20051;-72
2021/05/06 13:08:45;;;;;;;4.07;1.25;;;12.30;79.40;;;;;;5058355;28;20516;-72
2021/05/06 13:11:14;;;;;;;2.15;1.08;;;12.40;79.80;;;;;;5058210;28;20439;-71
2021/05/06 13:13:40;;;;;;;1.98;1.33;;;12.40;78.40;;;;;;5058107;28;20032;-72
2021/05/06 13:16:08;;;;;;;3.05;0.85;;;12.50;77.40;;;;;;5058135;28;20024;-72
2021/05/06 13:18:36;;;;;;;2.00;1.10;;;12.40;78.10;;;;;;5057882;28;20041;-72
2021/05/06 13:21:03;;;;;;;3.65;1.05;;;12.50;77.90;;;;;;5058352;28;20025;-72
2021/05/06 13:23:31;;;;;;;4.00;1.20;;;12.70;78.20;;;;;;5058151;28;20017;-72
2021/05/06 13:26:01;;;;;;;2.10;1.10;;;12.70;78.10;;;;;;5057866;28;20091;-72
2021/05/06 13:28:34;;;;;;;2.85;1.27;;;12.60;79.40;;;;;;5058229;28;20031;-72
2021/05/06 13:31:18;;;;;;;3.67;1.15;;;12.60;78.40;;;;;;5058201;28;20388;-72
2021/05/06 13:33:46;;;;;;;2.35;1.15;;;12.70;78.30;;;;;;5057789;28;20459;-72
2021/05/06 13:36:17;;;;;;;1.70;1.20;;;12.70;78.30;;;;;;5056771;28;20090;-72
2021/05/06 13:38:48;;;;;;;3.85;1.08;;;12.70;78.60;;;;;;5058059;28;20017;-72
2021/05/06 13:41:15;;;;;;;6.32;1.48;;;12.70;77.00;;;;;;5057996;28;20080;-72
2021/05/06 13:43:42;;;;;;;1.88;1.40;;;12.70;77.90;;;;;;5057582;28;20017;-72
2021/05/06 13:46:09;;;;;;;5.38;1.20;;;12.60;78.20;;;;;;5057816;28;20078;-71
2021/05/06 13:48:36;;;;;;;3.47;1.50;;;12.60;79.60;;;;;;5057811;28;20308;-72
2021/05/06 13:51:02;;;;;;;4.97;1.40;;;12.60;78.40;;;;;;5057762;28;20021;-72
2021/05/06 13:53:28;;;;;;;2.38;1.33;;;12.50;78.90;;;;;;5057801;28;20355;-72
2021/05/06 13:55:54;;;;;;;3.65;1.90;;;12.40;79.50;;;;;;5057382;28;20029;-72
2021/05/06 13:58:19;;;;;;;3.10;1.25;;;12.30;78.40;;;;;;5057686;28;20025;-72
2021/05/06 14:00:45;;;;;;;5.75;1.27;;;12.20;79.20;;;;;;5057283;28;20405;-72
2021/05/06 14:03:12;;;;;;;6.25;1.35;;;12.20;81.20;;;;;;5057628;28;20087;-71
2021/05/06 14:05:37;;;;;;;3.08;1.50;;;12.20;81.10;;;;;;5057371;28;20056;-71
2021/05/06 14:08:03;;;;;;;5.38;1.88;;;12.20;81.70;;;;;;5057358;28;20405;-72
2021/05/06 14:10:29;;;;;;;3.47;1.20;;;12.10;81.30;;;;;;5057429;28;20312;-71
2021/05/06 14:12:55;;;;;;;2.45;1.45;;;12.00;80.60;;;;;;5057177;28;20482;-72
2021/05/06 14:15:21;;;;;;;6.80;1.50;;;11.90;81.50;;;;;;5056995;28;20075;-71
2021/05/06 14:17:46;;;;;;;4.90;2.05;;;11.90;83.00;;;;;;5057074;28;20055;-72
2021/05/06 14:20:12;;;;;;;2.50;1.23;;;11.80;81.70;;;;;;5057266;28;20040;-71
2021/05/06 14:22:38;;;;;;;2.53;1.20;;;11.70;81.50;;;;;;5057241;28;20317;-72
2021/05/06 14:25:04;;;;;;;1.90;1.10;;;11.60;81.60;;;;;;5056793;28;20108;-71
2021/05/06 14:27:32;;;;;;;2.55;1.10;;;11.60;82.20;;;;;;5057094;28;20309;-72
2021/05/06 14:29:58;;;;;;;2.92;1.58;;;11.70;82.60;;;;;;5057168;28;20100;-72
2021/05/06 14:32:24;;;;;;;2.08;1.20;;;11.60;83.10;;;;;;5056867;28;20386;-72
2021/05/06 14:34:49;;;;;;;4.38;0.98;;;11.70;84.20;;;;;;5056693;28;20025;-72
2021/05/06 14:37:15;;;;;;;3.00;1.55;;;11.70;84.90;;;;;;5056708;28;20025;-71
2021/05/06 14:39:41;;;;;;;5.53;1.50;;;11.70;82.70;;;;;;5057013;28;20025;-71
2021/05/06 14:42:06;;;;;;;4.28;1.50;;;11.70;83.70;;;;;;5056999;28;20413;-72
2021/05/06 14:44:32;;;;;;;2.42;1.33;;;11.60;82.80;;;;;;5056863;28;20033;-72
2021/05/06 14:46:58;;;;;;;3.65;1.48;;;11.60;83.90;;;;;;5056853;28;20309;-72
2021/05/06 14:49:23;;;;;;;3.88;1.48;;;11.60;84.80;;;;;;5056608;28;20106;-72
2021/05/06 14:51:49;;;;;;;4.60;1.75;;;11.60;85.00;;;;;;5056890;28;20021;-72
2021/05/06 14:54:15;;;;;;;2.85;1.25;;;11.60;83.40;;;;;;5056849;28;20485;-72
2021/05/06 14:56:40;;;;;;;3.63;1.58;;;11.70;83.30;;;;;;5056841;28;20032;-72
2021/05/06 14:59:06;;;;;;;6.22;1.67;;;11.70;82.90;;;;;;5056781;28;20032;-72
2021/05/06 15:01:33;;;;;;;2.08;1.48;;;11.60;83.10;;;;;;5056809;28;20025;-72
2021/05/06 15:03:58;;;;;;;1.80;1.40;;;11.60;83.90;;;;;;5056596;28;20025;-72
2021/05/06 15:06:24;;;;;;;3.88;1.80;;;11.60;84.40;;;;;;5056663;28;20287;-72
2021/05/06 15:08:50;;;;;;;6.72;1.98;;;11.80;85.30;;;;;;5056388;28;20377;-72
2021/05/06 15:11:16;;;;;;;5.05;1.50;;;11.90;85.00;;;;;;5056708;28;20028;-71
2021/05/06 15:13:42;;;;;;;2.78;1.42;;;12.00;85.80;;;;;;5056576;28;20044;-72
2021/05/06 15:16:08;;;;;;;3.20;1.35;;;12.10;85.40;;;;;;5057789;28;20025;-72
2021/05/06 15:18:33;;;;;;;5.95;1.55;;;12.20;85.60;;;;;;5060326;28;20048;-72
2021/05/06 15:20:59;;;;;;;3.53;1.70;;;12.30;83.70;;;;;;5060668;28;20021;-72
2021/05/06 15:23:25;;;;;;;2.30;1.77;;;12.50;83.20;;;;;;5060506;28;20409;-72
2021/05/06 15:25:51;;;;;;;5.00;1.50;;;12.60;83.30;;;;;;5060607;28;20025;-71
2021/05/06 15:28:17;;;;;;;6.20;2.30;;;12.80;83.80;;;;;;5060135;28;20029;-72
2021/05/06 15:30:44;;;;;;;1.80;1.40;;;12.90;81.60;;;;;;5060140;28;20019;-72
2021/05/06 15:33:09;;;;;;;6.90;2.03;;;13.00;82.90;;;;;;5060138;28;20037;-72
2021/05/06 15:35:35;;;;;;;4.38;2.17;;;13.20;83.80;;;;;;5059009;28;20019;-72
2021/05/06 15:38:03;;;;;;;5.28;2.10;;;13.30;82.40;;;;;;5060005;28;20032;-71
2021/05/06 15:40:29;;;;;;;5.53;1.80;;;13.40;82.30;;;;;;5060260;28;20033;-71
2021/05/06 15:42:54;;;;;;;8.25;2.40;;;13.50;83.70;;;;;;5060267;28;20409;-72
2021/05/06 15:45:20;;;;;;;3.60;1.67;;;13.30;83.90;;;;;;5059823;28;20104;-72
2021/05/06 15:47:46;;;;;;;2.92;1.52;;;13.30;83.20;;;;;;5060083;28;20032;-72
2021/05/06 15:50:13;;;;;;;2.17;1.50;;;13.20;82.20;;;;;;5059779;28;20044;-72
2021/05/06 15:52:40;;;;;;;3.00;1.50;;;13.00;80.30;;;;;;5059758;28;20546;-72
2021/05/06 15:55:08;;;;;;;4.13;1.63;;;13.00;80.30;;;;;;5059635;28;20421;-72
2021/05/06 15:57:36;;;;;;;7.50;2.03;;;12.90;81.40;;;;;;5059640;28;20107;-72
2021/05/06 16:00:05;;;;;;;5.55;1.85;;;12.80;81.30;;;;;;5059596;28;20032;-72
2021/05/06 16:02:31;;;;;;;3.60;1.77;;;12.80;81.60;;;;;;5059539;28;20029;-72
2021/05/06 16:04:57;;;;;;;4.13;1.50;;;12.70;81.60;;;;;;5059758;28;20108;-72
2021/05/06 16:07:23;;;;;;;3.05;1.92;;;12.70;80.60;;;;;;5059346;28;20119;-72
2021/05/06 16:09:48;;;;;;;5.00;1.70;;;12.60;82.40;;;;;;5059755;28;20021;-72
2021/05/06 16:12:14;;;;;;;5.65;1.75;;;12.60;83.10;;;;;;5059774;28;20109;-72
2021/05/06 16:14:40;;;;;;;2.95;1.50;;;12.60;83.10;;;;;;5059288;28;20033;-72
2021/05/06 16:17:06;;;;;;;5.25;1.75;;;12.50;85.10;;;;;;5059397;28;20116;-72
2021/05/06 16:19:32;;;;;;;4.45;1.77;;;12.50;83.00;;;;;;5059566;28;20025;-72
2021/05/06 16:21:58;;;;;;;2.63;1.70;;;12.40;82.50;;;;;;5059507;28;20064;-72
2021/05/06 16:24:24;;;;;;;2.25;1.48;;;12.40;81.60;;;;;;5059563;28;20095;-72
2021/05/06 16:26:51;;;;;;;4.30;1.90;;;12.40;82.70;;;;;;5058891;28;20041;-72
2021/05/06 16:29:18;;;;;;;3.60;1.45;;;12.40;82.40;;;;;;5058264;28;20306;-71